Time;durP1;ratioP1;P1;durP2;ratioP2;P2;SDS_P1;SDS_P2;PMS_P1;PMS_P2;Temp;Humidity;BMP_temperature;BMP_pressure;BME280_temperature;BME280_humidity;BME280_pressure;Samples;Min_cycle;Max_cycle;Signal;HPM_P1;HPM_P2
2023/06/18 00:00:11;;;;;;;13.30;9.00;;;18.50;65.10;;;;;;5086664;28;20470;-78
2023/06/18 00:02:39;;;;;;;13.60;8.87;;;18.40;65.10;;;;;;5091146;28;20458;-76
2023/06/18 00:05:07;;;;;;;11.50;9.00;;;18.40;65.10;;;;;;5083564;28;20945;-79
2023/06/18 00:07:36;;;;;;;13.77;9.60;;;18.40;65.20;;;;;;5090728;28;20477;-78
2023/06/18 00:10:04;;;;;;;13.97;9.63;;;18.40;65.20;;;;;;5102681;28;20454;-78
2023/06/18 00:12:32;;;;;;;15.40;8.93;;;18.40;65.10;;;;;;5102340;28;20462;-77
2023/06/18 00:15:01;;;;;;;13.87;8.87;;;18.40;65.10;;;;;;5104054;28;20480;-77
2023/06/18 00:17:30;;;;;;;15.33;9.13;;;18.40;65.00;;;;;;5105174;28;20458;-77
2023/06/18 00:19:58;;;;;;;13.83;9.73;;;18.20;64.90;;;;;;5100328;28;20462;-77
2023/06/18 00:22:26;;;;;;;12.20;9.33;;;18.10;65.00;;;;;;5103523;28;21365;-78
2023/06/18 00:24:55;;;;;;;18.73;9.47;;;18.10;65.20;;;;;;5103868;28;20448;-78
2023/06/18 00:27:23;;;;;;;12.50;9.30;;;18.10;65.40;;;;;;5087568;28;20452;-76
2023/06/18 00:29:52;;;;;;;13.80;9.40;;;18.10;65.40;;;;;;5102291;28;20466;-77
2023/06/18 00:32:22;;;;;;;12.10;8.73;;;18.10;65.40;;;;;;5087232;28;20473;-77
2023/06/18 00:34:53;;;;;;;12.30;9.50;;;18.20;65.40;;;;;;5098522;28;20477;-77
2023/06/18 00:37:21;;;;;;;13.60;9.80;;;18.20;65.30;;;;;;5088925;28;20466;-77
2023/06/18 00:39:50;;;;;;;15.00;9.90;;;18.10;65.20;;;;;;5085739;28;20481;-77
2023/06/18 00:42:20;;;;;;;14.07;9.30;;;18.10;65.30;;;;;;5102018;28;20476;-77
2023/06/18 00:44:49;;;;;;;12.63;9.63;;;18.10;65.30;;;;;;5105704;28;20538;-77
2023/06/18 00:47:19;;;;;;;11.77;8.97;;;18.10;65.30;;;;;;5081271;28;20467;-76
2023/06/18 00:49:49;;;;;;;13.43;9.27;;;18.00;65.30;;;;;;5104160;28;20468;-77
2023/06/18 00:52:18;;;;;;;11.53;8.97;;;18.00;65.30;;;;;;5103971;28;21091;-77
2023/06/18 00:54:46;;;;;;;16.57;10.40;;;17.90;65.30;;;;;;5097614;28;20569;-77
2023/06/18 00:57:17;;;;;;;13.97;9.43;;;17.90;65.30;;;;;;5083954;28;20493;-76
2023/06/18 00:59:46;;;;;;;13.27;10.27;;;17.90;65.40;;;;;;5088420;28;21145;-78
2023/06/18 01:02:23;;;;;;;13.47;10.23;;;17.80;65.50;;;;;;5083876;28;20479;-76
2023/06/18 01:04:59;;;;;;;14.93;9.27;;;17.80;65.40;;;;;;5088262;28;20453;-77
2023/06/18 01:07:28;;;;;;;15.60;9.80;;;17.80;65.50;;;;;;5105762;28;20453;-77
2023/06/18 01:10:08;;;;;;;13.23;10.10;;;17.80;65.60;;;;;;5086479;28;21019;-77
2023/06/18 01:12:36;;;;;;;15.97;9.30;;;17.80;65.50;;;;;;5105940;28;20750;-77
2023/06/18 01:15:05;;;;;;;12.50;9.53;;;17.70;65.50;;;;;;5108857;28;20488;-77
2023/06/18 01:17:34;;;;;;;14.23;10.00;;;17.70;65.60;;;;;;5087434;28;21380;-77
2023/06/18 01:20:09;;;;;;;12.60;9.37;;;17.60;65.60;;;;;;5104218;28;20984;-77
2023/06/18 01:22:40;;;;;;;13.83;9.90;;;17.60;65.70;;;;;;5104147;28;20519;-77
2023/06/18 01:25:09;;;;;;;15.83;9.50;;;17.60;65.70;;;;;;5104596;28;20496;-77
2023/06/18 01:27:40;;;;;;;12.93;9.50;;;17.50;65.70;;;;;;5087925;28;21199;-77
2023/06/18 01:30:10;;;;;;;12.13;9.50;;;17.50;65.80;;;;;;5084395;28;20458;-78
2023/06/18 01:32:39;;;;;;;14.47;9.90;;;17.50;65.90;;;;;;5092686;28;20590;-78
2023/06/18 01:35:14;;;;;;;11.73;8.80;;;17.50;65.90;;;;;;5103085;28;20493;-78
2023/06/18 01:37:54;;;;;;;16.73;10.47;;;17.50;66.00;;;;;;5082881;28;20454;-78
2023/06/18 01:40:33;;;;;;;12.87;10.30;;;17.50;66.00;;;;;;5099870;28;20740;-77
2023/06/18 01:43:12;;;;;;;15.27;10.17;;;17.50;66.00;;;;;;5099840;28;20465;-77
2023/06/18 01:45:47;;;;;;;12.63;9.10;;;17.60;66.00;;;;;;5102576;28;20862;-77
2023/06/18 01:48:19;;;;;;;11.40;9.00;;;17.60;65.90;;;;;;5106091;28;20971;-78
2023/06/18 01:50:50;;;;;;;13.93;10.00;;;17.60;65.90;;;;;;5088132;28;20462;-77
2023/06/18 01:53:21;;;;;;;13.07;9.60;;;17.60;65.90;;;;;;5087342;28;20456;-77
2023/06/18 01:55:52;;;;;;;15.43;10.20;;;17.60;65.90;;;;;;5087127;28;20887;-77
2023/06/18 01:58:22;;;;;;;15.33;9.37;;;17.50;65.80;;;;;;5086916;28;21020;-77
2023/06/18 02:00:51;;;;;;;10.87;8.40;;;17.50;65.70;;;;;;5089594;28;20677;-77
2023/06/18 02:03:20;;;;;;;13.30;9.50;;;17.40;65.70;;;;;;5091835;28;20465;-78
2023/06/18 02:05:50;;;;;;;12.80;9.70;;;17.40;65.80;;;;;;5106782;28;20449;-77
2023/06/18 02:08:18;;;;;;;15.27;9.20;;;17.40;65.80;;;;;;5097362;28;20927;-78
2023/06/18 02:10:46;;;;;;;12.60;8.90;;;17.50;65.80;;;;;;5088954;28;20453;-78
2023/06/18 02:13:15;;;;;;;13.80;9.70;;;17.40;65.70;;;;;;5102706;28;20467;-79
2023/06/18 02:15:43;;;;;;;13.07;9.90;;;17.40;65.70;;;;;;5099721;28;21034;-77
2023/06/18 02:18:11;;;;;;;14.70;9.63;;;17.30;65.80;;;;;;5085356;28;20482;-77
2023/06/18 02:20:40;;;;;;;12.10;9.17;;;17.30;65.90;;;;;;5089161;28;20490;-77
2023/06/18 02:23:10;;;;;;;13.70;9.20;;;17.30;65.90;;;;;;5103140;28;20456;-77
2023/06/18 02:25:37;;;;;;;15.00;9.63;;;17.30;65.90;;;;;;5086894;28;20453;-76
2023/06/18 02:28:07;;;;;;;12.07;8.90;;;17.30;65.90;;;;;;5096328;28;20538;-76
2023/06/18 02:30:35;;;;;;;13.93;8.80;;;17.30;65.90;;;;;;5101481;28;20465;-77
2023/06/18 02:33:06;;;;;;;13.20;9.60;;;17.30;65.90;;;;;;5099315;28;20798;-77
2023/06/18 02:35:39;;;;;;;11.67;9.10;;;17.30;65.70;;;;;;5102410;28;20479;-77
2023/06/18 02:38:10;;;;;;;14.57;9.50;;;17.30;65.70;;;;;;5102111;28;20505;-78
2023/06/18 02:40:38;;;;;;;12.50;9.47;;;17.20;65.80;;;;;;5087093;28;20547;-77
2023/06/18 02:43:08;;;;;;;14.23;9.77;;;17.10;65.80;;;;;;5100887;28;20538;-77
2023/06/18 02:45:37;;;;;;;14.60;10.03;;;17.00;65.90;;;;;;5085731;28;21178;-77
2023/06/18 02:48:06;;;;;;;16.77;9.70;;;16.90;66.00;;;;;;5087919;28;21176;-77
2023/06/18 02:50:34;;;;;;;13.40;9.63;;;16.90;66.10;;;;;;5108023;28;20467;-78
2023/06/18 02:53:01;;;;;;;14.60;10.63;;;16.80;66.00;;;;;;5092483;28;20475;-77
2023/06/18 02:55:32;;;;;;;13.40;8.83;;;16.80;66.10;;;;;;5092679;28;20898;-79
2023/06/18 02:58:00;;;;;;;13.00;9.97;;;16.80;66.20;;;;;;5085096;28;20512;-78
2023/06/18 03:00:28;;;;;;;18.10;9.47;;;16.70;66.20;;;;;;5093398;28;21033;-77
2023/06/18 03:02:56;;;;;;;13.00;9.33;;;16.70;66.30;;;;;;5093384;28;20457;-77
2023/06/18 03:05:29;;;;;;;14.97;9.50;;;16.70;66.30;;;;;;5087790;28;20464;-77
2023/06/18 03:07:57;;;;;;;19.90;10.50;;;16.80;66.30;;;;;;5090824;28;20487;-77
2023/06/18 03:10:25;;;;;;;17.27;9.90;;;16.80;66.30;;;;;;5088249;28;20471;-77
2023/06/18 03:12:57;;;;;;;12.87;9.97;;;16.80;66.30;;;;;;5093372;28;20515;-78
2023/06/18 03:15:43;;;;;;;13.40;9.73;;;16.80;66.30;;;;;;5092448;28;20482;-77
2023/06/18 03:18:12;;;;;;;12.10;9.10;;;16.80;66.30;;;;;;5107879;28;20452;-77
2023/06/18 03:20:42;;;;;;;15.57;9.37;;;16.80;66.30;;;;;;5105767;28;20459;-78
2023/06/18 03:23:10;;;;;;;14.40;10.30;;;16.80;66.30;;;;;;5104757;28;20542;-77
2023/06/18 03:25:42;;;;;;;21.60;10.93;;;16.80;66.30;;;;;;5085008;28;20454;-78
2023/06/18 03:28:18;;;;;;;20.23;10.07;;;16.80;66.20;;;;;;5089892;28;20459;-80
2023/06/18 03:30:46;;;;;;;15.60;10.10;;;16.70;66.30;;;;;;5104362;28;20515;-76
2023/06/18 03:33:17;;;;;;;14.87;10.53;;;16.70;66.20;;;;;;5090712;28;20518;-79
2023/06/18 03:35:46;;;;;;;15.67;10.00;;;16.70;66.20;;;;;;5093062;28;21001;-77
2023/06/18 03:38:16;;;;;;;13.50;9.13;;;16.60;66.20;;;;;;5089708;28;20522;-80
2023/06/18 03:40:43;;;;;;;17.60;10.97;;;16.60;66.20;;;;;;5089336;28;20448;-77
2023/06/18 03:43:14;;;;;;;13.57;9.80;;;16.50;66.20;;;;;;5102172;28;20452;-79
2023/06/18 03:45:46;;;;;;;14.87;9.80;;;16.50;66.30;;;;;;5085516;28;20752;-79
2023/06/18 03:48:15;;;;;;;18.13;10.93;;;16.50;66.50;;;;;;5087722;28;20545;-78
2023/06/18 03:50:45;;;;;;;16.40;9.27;;;16.40;66.50;;;;;;5089499;28;20490;-80
2023/06/18 03:53:13;;;;;;;16.40;10.37;;;16.40;66.50;;;;;;5107747;28;20448;-79
2023/06/18 03:55:42;;;;;;;13.80;9.70;;;16.40;66.50;;;;;;5104560;28;20674;-79
2023/06/18 03:58:14;;;;;;;16.20;10.83;;;16.40;66.60;;;;;;5089533;28;20499;-80
2023/06/18 04:00:47;;;;;;;14.53;10.70;;;16.40;66.60;;;;;;5095457;28;21099;-78
2023/06/18 04:03:15;;;;;;;18.80;9.77;;;16.40;66.60;;;;;;5087644;28;20525;-77
2023/06/18 04:05:43;;;;;;;13.27;9.40;;;16.40;66.60;;;;;;5102472;28;20452;-78
2023/06/18 04:08:12;;;;;;;14.93;9.17;;;16.40;66.70;;;;;;5085433;28;20526;-78
2023/06/18 04:10:41;;;;;;;14.90;9.23;;;16.40;66.80;;;;;;5082047;28;20452;-80
2023/06/18 04:13:10;;;;;;;13.20;10.20;;;16.50;66.90;;;;;;5091095;28;20460;-79
2023/06/18 04:15:38;;;;;;;19.57;10.73;;;16.50;66.80;;;;;;5088086;28;20555;-78
2023/06/18 04:18:07;;;;;;;14.77;10.00;;;16.60;66.80;;;;;;5088373;28;20562;-79
2023/06/18 04:20:35;;;;;;;13.50;10.00;;;16.70;66.90;;;;;;5090782;28;20481;-78
2023/06/18 04:23:04;;;;;;;14.70;9.80;;;16.70;66.90;;;;;;5090131;28;20454;-79
2023/06/18 04:25:32;;;;;;;15.40;10.30;;;16.80;66.90;;;;;;5090291;28;20521;-78
2023/06/18 04:28:01;;;;;;;14.23;9.43;;;16.90;67.00;;;;;;5090756;28;20533;-78
2023/06/18 04:30:30;;;;;;;16.27;10.67;;;16.90;66.90;;;;;;5087492;28;20539;-78
2023/06/18 04:33:00;;;;;;;14.10;10.33;;;17.00;66.90;;;;;;5087111;28;20460;-78
2023/06/18 04:35:30;;;;;;;14.27;9.47;;;17.10;67.00;;;;;;5087966;28;20470;-78
2023/06/18 04:37:59;;;;;;;15.30;9.67;;;17.20;67.10;;;;;;5086474;28;20530;-78
2023/06/18 04:40:28;;;;;;;21.33;10.73;;;17.30;67.10;;;;;;5088325;28;20496;-78
2023/06/18 04:42:58;;;;;;;16.00;9.93;;;17.50;67.00;;;;;;5084926;28;20453;-79
2023/06/18 04:45:32;;;;;;;16.03;11.20;;;17.60;67.00;;;;;;5100802;28;20561;-78
2023/06/18 04:48:02;;;;;;;14.57;10.80;;;17.70;66.90;;;;;;5086574;28;21043;-78
2023/06/18 04:50:32;;;;;;;13.53;10.07;;;17.80;66.70;;;;;;5102153;28;20480;-77
2023/06/18 04:53:00;;;;;;;14.27;9.73;;;17.90;66.60;;;;;;5088875;28;20514;-77
2023/06/18 04:55:29;;;;;;;13.03;9.47;;;17.90;66.60;;;;;;5089348;28;20458;-78
2023/06/18 04:57:58;;;;;;;17.10;10.50;;;18.00;66.70;;;;;;5099486;28;20481;-78
2023/06/18 05:00:28;;;;;;;13.50;9.10;;;18.10;66.70;;;;;;5096618;28;21005;-78
2023/06/18 05:02:58;;;;;;;12.53;10.13;;;18.30;66.70;;;;;;5099071;28;20457;-78
2023/06/18 05:05:26;;;;;;;13.20;9.70;;;18.40;66.60;;;;;;5101435;28;20454;-78
2023/06/18 05:07:57;;;;;;;17.63;10.70;;;18.50;66.60;;;;;;5084608;28;21216;-78
2023/06/18 05:10:26;;;;;;;27.10;11.23;;;18.70;66.70;;;;;;5105568;28;20478;-78
2023/06/18 05:12:55;;;;;;;19.50;10.83;;;18.80;66.70;;;;;;5087151;28;20457;-78
2023/06/18 05:15:23;;;;;;;15.60;11.17;;;18.90;66.50;;;;;;5085895;28;20478;-78
2023/06/18 05:17:51;;;;;;;17.27;11.17;;;18.90;66.60;;;;;;5085826;28;20579;-78
2023/06/18 05:20:21;;;;;;;17.60;10.87;;;19.10;66.60;;;;;;5088556;28;20485;-78
2023/06/18 05:22:49;;;;;;;15.37;10.20;;;19.10;66.50;;;;;;5090301;28;20471;-78
2023/06/18 05:25:19;;;;;;;15.77;11.50;;;19.30;66.60;;;;;;5085790;28;20458;-78
2023/06/18 05:27:47;;;;;;;20.70;11.43;;;19.40;66.60;;;;;;5087782;28;20462;-78
2023/06/18 05:30:15;;;;;;;16.83;12.27;;;19.50;66.70;;;;;;5088209;28;20490;-77
2023/06/18 05:32:43;;;;;;;14.20;11.40;;;19.60;66.60;;;;;;5088133;28;20459;-77
2023/06/18 05:35:15;;;;;;;15.60;11.30;;;19.70;66.60;;;;;;5085356;28;20467;-78
2023/06/18 05:37:50;;;;;;;17.83;12.60;;;19.90;66.70;;;;;;5084490;28;20472;-78
2023/06/18 05:40:20;;;;;;;17.53;11.83;;;20.20;66.90;;;;;;5086890;28;20513;-78
2023/06/18 05:42:48;;;;;;;20.93;11.57;;;20.60;66.60;;;;;;5084926;28;20467;-79
2023/06/18 05:45:18;;;;;;;18.67;11.23;;;21.20;65.80;;;;;;5083516;28;20988;-78
2023/06/18 05:47:47;;;;;;;18.23;11.30;;;21.90;64.60;;;;;;5090915;28;20483;-78
2023/06/18 05:50:23;;;;;;;17.10;11.47;;;22.50;63.70;;;;;;5106669;28;21310;-76
2023/06/18 05:52:52;;;;;;;14.67;11.47;;;23.20;62.90;;;;;;5086876;28;20823;-78
2023/06/18 05:55:21;;;;;;;17.03;11.37;;;23.70;62.20;;;;;;5089425;28;21025;-78
2023/06/18 05:57:50;;;;;;;13.93;11.47;;;24.20;61.40;;;;;;5093246;28;20477;-77
2023/06/18 06:00:19;;;;;;;14.10;10.13;;;24.60;60.80;;;;;;5090190;28;20475;-79
2023/06/18 06:02:50;;;;;;;14.33;10.53;;;25.00;60.10;;;;;;5087633;28;20487;-80
2023/06/18 06:05:24;;;;;;;14.40;11.03;;;25.40;59.40;;;;;;5102983;28;20460;-78
2023/06/18 06:07:53;;;;;;;13.00;10.40;;;25.60;58.60;;;;;;5084870;28;21241;-80
2023/06/18 06:10:24;;;;;;;13.73;10.80;;;25.80;58.20;;;;;;5090722;28;20465;-79
2023/06/18 06:12:53;;;;;;;18.23;11.50;;;25.80;57.80;;;;;;5087336;28;20536;-78
2023/06/18 06:15:22;;;;;;;13.30;10.73;;;25.60;57.80;;;;;;5097511;28;20460;-78
2023/06/18 06:17:50;;;;;;;16.83;10.97;;;25.30;57.90;;;;;;5103215;28;20482;-77
2023/06/18 06:20:18;;;;;;;17.37;12.57;;;25.10;57.90;;;;;;5084727;28;20510;-77
2023/06/18 06:22:49;;;;;;;13.60;11.27;;;24.80;58.10;;;;;;5086071;28;20953;-79
2023/06/18 06:25:18;;;;;;;14.60;10.93;;;24.60;58.20;;;;;;5087642;28;20468;-78
2023/06/18 06:27:48;;;;;;;14.37;11.00;;;24.30;58.50;;;;;;5087138;28;20452;-79
2023/06/18 06:30:18;;;;;;;14.23;9.87;;;24.00;58.90;;;;;;5083333;28;20539;-79
2023/06/18 06:32:48;;;;;;;12.97;10.80;;;23.80;59.10;;;;;;5099952;28;20543;-79
2023/06/18 06:35:16;;;;;;;18.70;10.63;;;23.50;59.50;;;;;;5079077;28;20457;-78
2023/06/18 06:37:44;;;;;;;12.80;10.47;;;23.30;59.80;;;;;;5081262;28;20545;-79
2023/06/18 06:40:13;;;;;;;13.60;10.27;;;23.00;60.20;;;;;;5106199;28;20448;-78
2023/06/18 06:42:42;;;;;;;18.23;11.10;;;22.70;60.60;;;;;;5088417;28;20452;-79
2023/06/18 06:45:29;;;;;;;13.70;10.80;;;22.50;61.00;;;;;;5090188;28;20459;-78
2023/06/18 06:48:08;;;;;;;12.90;10.30;;;22.30;61.30;;;;;;5087340;28;20454;-78
2023/06/18 06:50:53;;;;;;;13.93;11.27;;;22.10;61.60;;;;;;5096259;28;20459;-79
2023/06/18 06:53:25;;;;;;;14.30;10.83;;;21.90;62.00;;;;;;5104028;28;20489;-79
2023/06/18 06:55:53;;;;;;;12.00;9.80;;;21.90;62.30;;;;;;5090641;28;20492;-79
2023/06/18 06:58:24;;;;;;;13.70;10.53;;;21.90;62.50;;;;;;5086405;28;20615;-79
2023/06/18 07:00:53;;;;;;;13.30;10.80;;;21.90;62.60;;;;;;5104398;28;20472;-80
2023/06/18 07:03:21;;;;;;;15.33;10.20;;;21.90;62.90;;;;;;5081828;28;20465;-79
2023/06/18 07:05:50;;;;;;;14.57;10.87;;;21.90;63.10;;;;;;5082795;28;20519;-79
2023/06/18 07:08:18;;;;;;;16.10;10.50;;;21.90;63.10;;;;;;5105117;28;20448;-80
2023/06/18 07:10:47;;;;;;;12.40;9.40;;;21.90;63.20;;;;;;5102115;28;20467;-81
2023/06/18 07:13:15;;;;;;;14.57;10.23;;;21.90;63.30;;;;;;5106416;28;20444;-80
2023/06/18 07:15:43;;;;;;;13.40;9.90;;;21.90;63.40;;;;;;5101952;28;20866;-79
2023/06/18 07:18:12;;;;;;;13.93;9.90;;;21.90;63.50;;;;;;5098567;28;20479;-80
2023/06/18 07:20:40;;;;;;;14.77;11.20;;;22.00;63.60;;;;;;5087370;28;20466;-80
2023/06/18 07:23:09;;;;;;;13.00;10.50;;;22.00;63.60;;;;;;5104250;28;20455;-79
2023/06/18 07:25:37;;;;;;;12.97;10.63;;;22.00;63.70;;;;;;5100094;28;20552;-81
2023/06/18 07:28:06;;;;;;;14.90;10.50;;;22.10;63.70;;;;;;5101827;28;20444;-79
2023/06/18 07:30:35;;;;;;;14.37;10.60;;;22.10;63.70;;;;;;5101977;28;20480;-80
2023/06/18 07:33:04;;;;;;;13.53;10.67;;;22.10;63.80;;;;;;5097691;28;21158;-80
2023/06/18 07:35:34;;;;;;;13.80;9.73;;;22.20;63.80;;;;;;5081797;28;21245;-80
2023/06/18 07:38:02;;;;;;;14.57;11.40;;;22.20;63.70;;;;;;5105060;28;20475;-79
2023/06/18 07:40:33;;;;;;;12.47;9.67;;;22.30;63.80;;;;;;5102975;28;20544;-80
2023/06/18 07:43:02;;;;;;;13.77;11.33;;;22.40;63.60;;;;;;5106524;28;20451;-80
2023/06/18 07:45:31;;;;;;;14.30;9.53;;;22.40;63.60;;;;;;5108847;28;20466;-79
2023/06/18 07:48:00;;;;;;;15.37;10.10;;;22.50;63.60;;;;;;5106578;28;20447;-79
2023/06/18 07:50:29;;;;;;;14.13;9.97;;;22.50;63.40;;;;;;5086786;28;20453;-79
2023/06/18 07:52:59;;;;;;;14.50;10.27;;;22.60;63.20;;;;;;5093149;28;20510;-78
2023/06/18 07:55:28;;;;;;;12.10;10.30;;;22.70;63.20;;;;;;5109300;28;20936;-79
2023/06/18 07:57:57;;;;;;;13.07;9.90;;;22.70;63.10;;;;;;5085773;28;20460;-79
2023/06/18 08:00:25;;;;;;;13.17;10.80;;;22.80;63.00;;;;;;5106944;28;20443;-79
2023/06/18 08:02:54;;;;;;;14.27;9.30;;;22.90;62.80;;;;;;5108805;28;20447;-79
2023/06/18 08:05:22;;;;;;;14.13;10.17;;;22.90;62.70;;;;;;5104946;28;20451;-79
2023/06/18 08:07:51;;;;;;;13.83;9.33;;;23.00;62.60;;;;;;5097852;28;20462;-78
2023/06/18 08:10:20;;;;;;;11.83;9.37;;;23.00;62.40;;;;;;5100066;28;20530;-79
2023/06/18 08:12:49;;;;;;;13.40;10.73;;;23.10;62.20;;;;;;5103955;28;20498;-79
2023/06/18 08:15:17;;;;;;;15.10;9.77;;;23.20;62.10;;;;;;5102723;28;20488;-80
2023/06/18 08:17:47;;;;;;;13.30;9.53;;;23.20;62.00;;;;;;5105820;27;20467;-81
2023/06/18 08:20:22;;;;;;;11.63;9.30;;;23.30;61.80;;;;;;5106436;27;20880;-78
2023/06/18 08:22:51;;;;;;;12.70;9.27;;;23.30;61.80;;;;;;5106125;28;20490;-78
2023/06/18 08:25:20;;;;;;;15.27;9.80;;;23.40;61.70;;;;;;5103109;28;20486;-79
2023/06/18 08:27:48;;;;;;;14.30;9.40;;;23.40;61.70;;;;;;5107927;28;20452;-80
2023/06/18 08:30:16;;;;;;;11.90;9.00;;;23.50;61.50;;;;;;5095321;28;20458;-81
2023/06/18 08:32:45;;;;;;;12.47;9.90;;;23.60;61.20;;;;;;5089710;28;20448;-80
2023/06/18 08:35:13;;;;;;;13.17;9.37;;;23.60;61.10;;;;;;5103290;28;20463;-80
2023/06/18 08:37:43;;;;;;;13.00;10.00;;;23.70;60.80;;;;;;5108811;28;20450;-79
2023/06/18 08:40:14;;;;;;;12.83;9.27;;;23.70;60.20;;;;;;5107087;28;20484;-79
2023/06/18 08:42:45;;;;;;;11.73;9.00;;;23.80;59.70;;;;;;5107251;28;20447;-79
2023/06/18 08:45:32;;;;;;;12.10;9.40;;;23.80;59.60;;;;;;5108531;28;20440;-81
2023/06/18 08:48:05;;;;;;;12.87;9.70;;;23.80;59.70;;;;;;5102905;28;20448;-79
2023/06/18 08:51:04;;;;;;;14.17;10.67;;;23.90;59.60;;;;;;5108632;27;20467;-81
2023/06/18 08:53:39;;;;;;;12.60;8.93;;;23.90;59.80;;;;;;5104530;28;20572;-81
2023/06/18 08:56:09;;;;;;;15.53;9.03;;;24.00;59.70;;;;;;5103463;28;20937;-82
2023/06/18 08:58:48;;;;;;;21.43;9.80;;;24.10;59.70;;;;;;5092154;28;20574;-79
2023/06/18 09:01:16;;;;;;;12.70;9.30;;;24.20;59.70;;;;;;5089201;28;20463;-80
2023/06/18 09:03:45;;;;;;;14.60;9.63;;;24.20;59.80;;;;;;5106992;28;20921;-78
2023/06/18 09:06:13;;;;;;;12.63;9.30;;;24.20;59.80;;;;;;5107854;28;20940;-80
2023/06/18 09:08:44;;;;;;;11.40;8.63;;;24.30;59.80;;;;;;5085125;28;20880;-80
2023/06/18 09:11:13;;;;;;;10.93;8.60;;;24.30;59.50;;;;;;5107666;28;20876;-80
2023/06/18 09:13:44;;;;;;;13.20;9.63;;;24.30;59.40;;;;;;5103841;28;20528;-80
2023/06/18 09:16:12;;;;;;;13.20;9.60;;;24.40;59.30;;;;;;5105244;28;20451;-79
2023/06/18 09:18:41;;;;;;;12.70;8.83;;;24.40;59.30;;;;;;5102374;28;20543;-80
2023/06/18 09:21:10;;;;;;;12.73;9.87;;;24.50;59.30;;;;;;5100456;28;20930;-79
2023/06/18 09:23:39;;;;;;;12.30;9.40;;;24.50;59.50;;;;;;5088042;28;20460;-79
2023/06/18 09:26:07;;;;;;;11.80;9.20;;;24.50;59.40;;;;;;5088921;28;20440;-80
2023/06/18 09:28:38;;;;;;;14.03;8.90;;;24.70;59.20;;;;;;5103280;28;20827;-80
2023/06/18 09:31:07;;;;;;;11.60;9.03;;;24.70;58.90;;;;;;5102620;28;20482;-80
2023/06/18 09:33:36;;;;;;;14.40;9.77;;;24.80;58.80;;;;;;5107195;28;20444;-79
2023/06/18 09:36:06;;;;;;;11.97;8.30;;;24.80;58.70;;;;;;5086690;28;20472;-79
2023/06/18 09:38:35;;;;;;;14.07;9.10;;;24.90;58.40;;;;;;5104610;28;20479;-80
2023/06/18 09:41:12;;;;;;;11.40;8.23;;;24.90;57.90;;;;;;5084886;28;20472;-80
2023/06/18 09:43:43;;;;;;;11.60;9.07;;;24.90;57.60;;;;;;5084803;28;20515;-79
2023/06/18 09:46:13;;;;;;;16.97;9.47;;;25.00;57.10;;;;;;5089493;28;20849;-79
2023/06/18 09:48:45;;;;;;;11.80;8.47;;;25.10;56.90;;;;;;5085311;28;20452;-80
2023/06/18 09:51:16;;;;;;;11.50;9.10;;;25.10;56.60;;;;;;5091163;28;20838;-78
2023/06/18 09:53:55;;;;;;;12.40;8.80;;;25.20;56.20;;;;;;5090943;28;20460;-80
2023/06/18 09:56:23;;;;;;;11.40;9.13;;;25.20;56.10;;;;;;5102136;28;20941;-80
2023/06/18 09:58:52;;;;;;;14.10;9.73;;;25.30;56.00;;;;;;5092492;28;20467;-80
2023/06/18 10:01:22;;;;;;;13.53;8.20;;;25.30;55.60;;;;;;5094420;28;20475;-80
2023/06/18 10:03:50;;;;;;;12.37;8.80;;;25.30;55.50;;;;;;5099703;28;20451;-79
2023/06/18 10:06:19;;;;;;;12.53;9.30;;;25.40;55.30;;;;;;5088010;28;20466;-79
2023/06/18 10:08:49;;;;;;;11.60;8.50;;;25.40;55.00;;;;;;5104451;28;20458;-79
2023/06/18 10:11:18;;;;;;;11.93;8.70;;;25.50;54.90;;;;;;5094743;28;20520;-80
2023/06/18 10:13:48;;;;;;;11.47;8.37;;;25.50;54.70;;;;;;5100564;28;20460;-80
2023/06/18 10:16:18;;;;;;;11.73;7.73;;;25.60;54.60;;;;;;5102512;28;20977;-80
2023/06/18 10:19:00;;;;;;;11.73;8.10;;;25.60;54.10;;;;;;5101476;28;20460;-79
2023/06/18 10:21:29;;;;;;;11.27;8.30;;;25.70;53.70;;;;;;5108539;27;20495;-80
2023/06/18 10:24:02;;;;;;;13.40;8.43;;;25.70;53.90;;;;;;5101039;28;20462;-80
2023/06/18 10:26:30;;;;;;;12.97;8.83;;;25.70;54.10;;;;;;5085176;28;20448;-78
2023/06/18 10:28:59;;;;;;;9.90;7.73;;;25.80;54.30;;;;;;5103396;28;20448;-80
2023/06/18 10:31:27;;;;;;;10.53;7.67;;;25.90;54.10;;;;;;5105538;28;20494;-79
2023/06/18 10:33:58;;;;;;;9.90;7.67;;;26.00;53.80;;;;;;5105557;28;20459;-80
2023/06/18 10:36:28;;;;;;;10.90;7.83;;;26.00;53.40;;;;;;5088880;28;20467;-79
2023/06/18 10:38:57;;;;;;;12.03;7.80;;;26.00;53.20;;;;;;5087893;28;20455;-79
2023/06/18 10:41:27;;;;;;;11.53;7.53;;;26.00;52.70;;;;;;5105451;28;20481;-78
2023/06/18 10:43:56;;;;;;;10.93;8.40;;;26.00;52.50;;;;;;5099914;28;20456;-80
2023/06/18 10:46:25;;;;;;;12.37;8.40;;;26.00;52.10;;;;;;5087068;28;20452;-80
2023/06/18 10:49:16;;;;;;;12.30;9.20;;;26.00;51.70;;;;;;5084402;28;20487;-79
2023/06/18 10:52:05;;;;;;;16.97;8.60;;;26.10;51.40;;;;;;5081879;28;20456;-79
2023/06/18 10:54:34;;;;;;;10.17;7.20;;;26.10;51.10;;;;;;5090606;28;20452;-79
2023/06/18 10:57:03;;;;;;;11.50;7.43;;;26.10;50.90;;;;;;5091722;28;21146;-78
2023/06/18 10:59:42;;;;;;;10.87;7.90;;;26.10;50.90;;;;;;5084874;28;21444;-79
2023/06/18 11:02:11;;;;;;;10.57;7.43;;;26.10;51.00;;;;;;5096249;28;21029;-78
2023/06/18 11:04:41;;;;;;;11.80;8.27;;;26.10;51.00;;;;;;5081964;28;20456;-76
2023/06/18 11:07:18;;;;;;;11.40;7.73;;;26.20;50.80;;;;;;5088485;28;20452;-78
2023/06/18 11:09:52;;;;;;;9.87;7.10;;;26.20;50.60;;;;;;5106580;28;20447;-80
2023/06/18 11:12:22;;;;;;;11.73;8.10;;;26.30;50.50;;;;;;5084874;28;20466;-79
2023/06/18 11:15:14;;;;;;;11.77;7.80;;;26.30;50.30;;;;;;5092015;28;20973;-79
2023/06/18 11:17:43;;;;;;;10.67;7.47;;;26.40;50.10;;;;;;5109715;28;20536;-81
2023/06/18 11:20:13;;;;;;;13.70;7.70;;;26.40;50.10;;;;;;5086016;28;20563;-80
2023/06/18 11:22:42;;;;;;;12.40;7.43;;;26.50;49.50;;;;;;5104837;28;20539;-78
2023/06/18 11:25:12;;;;;;;11.40;7.80;;;26.50;49.40;;;;;;5106547;28;20506;-80
2023/06/18 11:27:41;;;;;;;13.03;8.60;;;26.60;49.60;;;;;;5102015;28;20467;-81
2023/06/18 11:30:11;;;;;;;11.63;7.53;;;26.60;49.60;;;;;;5103333;28;20495;-80
2023/06/18 11:32:40;;;;;;;9.40;6.90;;;26.60;49.00;;;;;;5088579;28;20450;-80
2023/06/18 11:35:09;;;;;;;11.47;6.73;;;26.60;49.00;;;;;;5087231;28;20468;-81
2023/06/18 11:37:41;;;;;;;10.47;6.63;;;26.60;48.70;;;;;;5104260;28;20477;-81
2023/06/18 11:40:11;;;;;;;9.40;6.33;;;26.60;48.50;;;;;;5106464;28;20564;-81
2023/06/18 11:42:48;;;;;;;10.83;6.73;;;26.70;48.70;;;;;;5096837;28;20512;-80
2023/06/18 11:45:16;;;;;;;11.03;7.23;;;26.70;48.50;;;;;;5100960;28;20823;-81
2023/06/18 11:47:47;;;;;;;10.70;7.60;;;26.80;48.60;;;;;;5105625;28;20467;-80
2023/06/18 11:50:15;;;;;;;9.47;6.50;;;26.80;48.70;;;;;;5088627;28;20452;-80
2023/06/18 11:52:45;;;;;;;10.90;6.50;;;26.90;48.30;;;;;;5100441;28;20546;-80
2023/06/18 11:55:14;;;;;;;9.13;6.67;;;26.90;48.20;;;;;;5104173;28;20487;-80
2023/06/18 11:57:42;;;;;;;9.80;6.50;;;26.90;48.00;;;;;;5105844;28;20452;-80
2023/06/18 12:00:13;;;;;;;10.00;6.70;;;26.90;47.50;;;;;;5103545;28;20494;-80
2023/06/18 12:02:42;;;;;;;10.03;7.10;;;26.90;46.90;;;;;;5096773;28;20872;-81
2023/06/18 12:05:11;;;;;;;11.47;7.63;;;26.90;46.70;;;;;;5106267;28;20552;-79
2023/06/18 12:07:41;;;;;;;12.47;7.47;;;26.90;46.80;;;;;;5084009;28;20472;-80
2023/06/18 12:10:13;;;;;;;13.27;7.20;;;27.00;46.80;;;;;;5102951;28;20468;-79
2023/06/18 12:12:52;;;;;;;10.33;7.87;;;27.00;47.10;;;;;;5105060;28;20539;-81
2023/06/18 12:15:31;;;;;;;9.90;7.63;;;27.10;47.30;;;;;;5089785;28;20536;-82
2023/06/18 12:18:08;;;;;;;13.00;7.20;;;27.10;47.20;;;;;;5105618;28;20460;-81
2023/06/18 12:20:36;;;;;;;11.50;7.50;;;27.10;47.20;;;;;;5108254;28;20558;-81
2023/06/18 12:23:05;;;;;;;9.73;7.50;;;27.10;47.00;;;;;;5087728;28;20989;-81
2023/06/18 12:25:35;;;;;;;10.57;7.50;;;27.10;46.80;;;;;;5085666;28;20465;-80
2023/06/18 12:28:04;;;;;;;9.33;7.00;;;27.10;46.70;;;;;;5104733;28;20443;-79
2023/06/18 12:30:35;;;;;;;11.27;6.43;;;27.20;46.60;;;;;;5088238;28;20499;-80
2023/06/18 12:33:05;;;;;;;13.40;7.63;;;27.20;46.60;;;;;;5087403;28;20467;-79
2023/06/18 12:35:34;;;;;;;11.17;7.70;;;27.20;46.70;;;;;;5080365;28;20461;-80
2023/06/18 12:38:04;;;;;;;11.30;7.17;;;27.30;47.00;;;;;;5104503;28;21111;-80
2023/06/18 12:40:35;;;;;;;9.63;7.50;;;27.40;46.60;;;;;;5107788;28;20523;-78
2023/06/18 12:43:11;;;;;;;12.10;7.67;;;27.50;46.60;;;;;;5105283;28;20488;-79
2023/06/18 12:45:39;;;;;;;10.90;7.73;;;27.60;46.90;;;;;;5088736;28;20457;-80
2023/06/18 12:48:13;;;;;;;9.50;7.30;;;27.70;47.00;;;;;;5098433;28;20449;-80